Terminal Aerodrome Forecast
Issued by NWS Jackson, MS

Home | Current Version | Previous Version | Text Only | Print | Product List | Glossary On
Versions: 1 2 3 4 5 6 7 8 9 10 11 12 13 14
221
FTUS44 KJAN 300003 RRA
TAFGLH
TAF
KGLH 300003Z 3000/3024 10006KT 6SM -SHRA SCT050 BKN110
     FM301200 16010G20KT 6SM -TSRA BKN020 BKN050CB
     FM301400 16012KT 4SM -RA BR OVC025
     FM301500 16014KT 6SM -SHRA OVC025
     FM301900 17019G25KT 5SM -TSRA OVC035CB=

USA.gov is the U.S. government's official web portal to all federal, state and local government web resources and services.